sensor_id;sensor_type;location;lat;lon;timestamp;pressure;altitude;pressure_sealevel;temperature;humidity
74633;BME280;63139;52.018;8.552;2024-01-10T00:02:19;102147.31;;;-6.14;84.72
74633;BME280;63139;52.018;8.552;2024-01-10T00:04:47;102149.88;;;-6.14;84.88
74633;BME280;63139;52.018;8.552;2024-01-10T00:07:15;102148.19;;;-6.15;84.79
74633;BME280;63139;52.018;8.552;2024-01-10T00:09:43;102150.78;;;-6.15;84.35
74633;BME280;63139;52.018;8.552;2024-01-10T00:12:12;102144.78;;;-6.17;84.78
74633;BME280;63139;52.018;8.552;2024-01-10T00:14:40;102137.03;;;-6.16;84.59
74633;BME280;63139;52.018;8.552;2024-01-10T00:17:09;102136.19;;;-6.18;84.83
74633;BME280;63139;52.018;8.552;2024-01-10T00:19:37;102131.91;;;-6.19;84.70
74633;BME280;63139;52.018;8.552;2024-01-10T00:22:05;102136.22;;;-6.21;84.68
74633;BME280;63139;52.018;8.552;2024-01-10T00:24:32;102134.53;;;-6.22;84.53
74633;BME280;63139;52.018;8.552;2024-01-10T00:27:00;102126.84;;;-6.23;84.37
74633;BME280;63139;52.018;8.552;2024-01-10T00:29:28;102128.56;;;-6.25;84.03
74633;BME280;63139;52.018;8.552;2024-01-10T00:31:56;102138.03;;;-6.26;84.10
74633;BME280;63139;52.018;8.552;2024-01-10T00:34:27;102132.94;;;-6.31;84.24
74633;BME280;63139;52.018;8.552;2024-01-10T00:36:55;102130.41;;;-6.35;84.38
74633;BME280;63139;52.018;8.552;2024-01-10T00:39:22;102120.16;;;-6.38;84.39
74633;BME280;63139;52.018;8.552;2024-01-10T00:41:50;102122.78;;;-6.43;84.66
74633;BME280;63139;52.018;8.552;2024-01-10T00:44:18;102116.84;;;-6.46;84.66
74633;BME280;63139;52.018;8.552;2024-01-10T00:46:45;102122.84;;;-6.47;85.10
74633;BME280;63139;52.018;8.552;2024-01-10T00:49:13;102114.31;;;-6.51;85.58
74633;BME280;63139;52.018;8.552;2024-01-10T00:51:42;102110.06;;;-6.53;85.36
74633;BME280;63139;52.018;8.552;2024-01-10T00:54:10;102117.81;;;-6.56;85.75
74633;BME280;63139;52.018;8.552;2024-01-10T00:56:38;102114.44;;;-6.60;85.72
74633;BME280;63139;52.018;8.552;2024-01-10T00:59:06;102111.91;;;-6.63;86.31
74633;BME280;63139;52.018;8.552;2024-01-10T01:01:34;102109.34;;;-6.64;86.32
74633;BME280;63139;52.018;8.552;2024-01-10T01:04:02;102107.63;;;-6.66;86.87
74633;BME280;63139;52.018;8.552;2024-01-10T01:06:29;102105.97;;;-6.68;87.15
74633;BME280;63139;52.018;8.552;2024-01-10T01:08:59;102105.13;;;-6.70;87.11
74633;BME280;63139;52.018;8.552;2024-01-10T01:11:26;102108.56;;;-6.71;87.66
74633;BME280;63139;52.018;8.552;2024-01-10T01:13:55;102106.84;;;-6.72;87.60
74633;BME280;63139;52.018;8.552;2024-01-10T01:16:23;102111.16;;;-6.73;88.53
74633;BME280;63139;52.018;8.552;2024-01-10T01:18:50;102107.72;;;-6.72;88.89
74633;BME280;63139;52.018;8.552;2024-01-10T01:21:18;102099.97;;;-6.72;88.76
74633;BME280;63139;52.018;8.552;2024-01-10T01:23:46;102110.28;;;-6.72;88.71
74633;BME280;63139;52.018;8.552;2024-01-10T01:26:15;102106.84;;;-6.72;88.67
74633;BME280;63139;52.018;8.552;2024-01-10T01:28:43;102106.88;;;-6.74;88.92
74633;BME280;63139;52.018;8.552;2024-01-10T01:31:11;102106.91;;;-6.75;88.86
74633;BME280;63139;52.018;8.552;2024-01-10T01:33:38;102099.22;;;-6.78;88.91
74633;BME280;63139;52.018;8.552;2024-01-10T01:36:07;102093.19;;;-6.77;89.57
74633;BME280;63139;52.018;8.552;2024-01-10T01:38:35;102093.19;;;-6.77;90.01
74633;BME280;63139;52.018;8.552;2024-01-10T01:41:03;102098.34;;;-6.77;90.86
74633;BME280;63139;52.018;8.552;2024-01-10T01:43:33;102085.47;;;-6.77;91.84
74633;BME280;63139;52.018;8.552;2024-01-10T01:46:02;102094.03;;;-6.77;91.43
74633;BME280;63139;52.018;8.552;2024-01-10T01:48:30;102084.59;;;-6.76;91.13
74633;BME280;63139;52.018;8.552;2024-01-10T01:51:01;102087.19;;;-6.79;90.95
74633;BME280;63139;52.018;8.552;2024-01-10T01:53:30;102086.34;;;-6.80;90.59
74633;BME280;63139;52.018;8.552;2024-01-10T01:56:00;102090.69;;;-6.82;90.80
74633;BME280;63139;52.018;8.552;2024-01-10T01:58:30;102088.13;;;-6.85;90.96
74633;BME280;63139;52.018;8.552;2024-01-10T02:00:59;102091.56;;;-6.83;91.00
74633;BME280;63139;52.018;8.552;2024-01-10T02:03:30;102084.69;;;-6.84;91.51
74633;BME280;63139;52.018;8.552;2024-01-10T02:05:58;102075.25;;;-6.83;91.16
74633;BME280;63139;52.018;8.552;2024-01-10T02:08:26;102076.09;;;-6.83;91.52
74633;BME280;63139;52.018;8.552;2024-01-10T02:10:54;102067.53;;;-6.85;91.28
74633;BME280;63139;52.018;8.552;2024-01-10T02:13:22;102064.13;;;-6.87;91.96
74633;BME280;63139;52.018;8.552;2024-01-10T02:15:50;102068.44;;;-6.87;92.73
74633;BME280;63139;52.018;8.552;2024-01-10T02:18:20;102063.28;;;-6.87;92.98
74633;BME280;63139;52.018;8.552;2024-01-10T02:20:49;102061.63;;;-6.90;92.86
74633;BME280;63139;52.018;8.552;2024-01-10T02:23:17;102056.47;;;-6.91;92.83
74633;BME280;63139;52.018;8.552;2024-01-10T02:25:46;102053.06;;;-6.93;92.48
74633;BME280;63139;52.018;8.552;2024-01-10T02:28:14;102065.06;;;-6.94;92.65
74633;BME280;63139;52.018;8.552;2024-01-10T02:30:42;102071.09;;;-6.96;92.71
74633;BME280;63139;52.018;8.552;2024-01-10T02:33:10;102056.50;;;-6.96;92.75
74633;BME280;63139;52.018;8.552;2024-01-10T02:35:38;102055.69;;;-6.98;93.16
74633;BME280;63139;52.018;8.552;2024-01-10T02:38:05;102046.28;;;-7.00;93.10
74633;BME280;63139;52.018;8.552;2024-01-10T02:40:33;102049.72;;;-7.01;93.69
74633;BME280;63139;52.018;8.552;2024-01-10T02:43:03;102047.16;;;-7.03;93.17
74633;BME280;63139;52.018;8.552;2024-01-10T02:45:30;102046.34;;;-7.05;93.03
74633;BME280;63139;52.018;8.552;2024-01-10T02:47:58;102048.09;;;-7.07;92.75
74633;BME280;63139;52.018;8.552;2024-01-10T02:50:26;102047.25;;;-7.09;92.58
74633;BME280;63139;52.018;8.552;2024-01-10T02:52:54;102045.59;;;-7.12;92.67
74633;BME280;63139;52.018;8.552;2024-01-10T02:55:21;102043.03;;;-7.13;92.18
74633;BME280;63139;52.018;8.552;2024-01-10T02:57:49;102045.59;;;-7.15;91.88
74633;BME280;63139;52.018;8.552;2024-01-10T03:00:18;102046.47;;;-7.17;91.82
74633;BME280;63139;52.018;8.552;2024-01-10T03:02:46;102043.97;;;-7.20;92.74
74633;BME280;63139;52.018;8.552;2024-01-10T03:05:14;102049.09;;;-7.20;92.78
74633;BME280;63139;52.018;8.552;2024-01-10T03:07:42;102048.25;;;-7.22;92.97
74633;BME280;63139;52.018;8.552;2024-01-10T03:10:10;102040.56;;;-7.25;92.55
74633;BME280;63139;52.018;8.552;2024-01-10T03:12:37;102038.03;;;-7.27;93.35
74633;BME280;63139;52.018;8.552;2024-01-10T03:15:06;102036.31;;;-7.26;93.48
74633;BME280;63139;52.018;8.552;2024-01-10T03:17:35;102044.03;;;-7.28;93.97
74633;BME280;63139;52.018;8.552;2024-01-10T03:20:03;102039.75;;;-7.27;94.80
74633;BME280;63139;52.018;8.552;2024-01-10T03:22:31;102045.75;;;-7.28;94.79
74633;BME280;63139;52.018;8.552;2024-01-10T03:24:59;102043.19;;;-7.28;94.79
74633;BME280;63139;52.018;8.552;2024-01-10T03:27:27;102038.91;;;-7.28;95.25
74633;BME280;63139;52.018;8.552;2024-01-10T03:29:55;102041.47;;;-7.29;95.45
74633;BME280;63139;52.018;8.552;2024-01-10T03:32:22;102035.47;;;-7.30;95.45
74633;BME280;63139;52.018;8.552;2024-01-10T03:34:51;102039.78;;;-7.30;95.76
74633;BME280;63139;52.018;8.552;2024-01-10T03:37:19;102041.50;;;-7.31;95.26
74633;BME280;63139;52.018;8.552;2024-01-10T03:39:47;102047.50;;;-7.32;95.82
74633;BME280;63139;52.018;8.552;2024-01-10T03:42:15;102035.50;;;-7.33;96.06
74633;BME280;63139;52.018;8.552;2024-01-10T03:44:43;102035.50;;;-7.33;96.10
74633;BME280;63139;52.018;8.552;2024-01-10T03:47:10;102035.50;;;-7.33;96.13
74633;BME280;63139;52.018;8.552;2024-01-10T03:49:38;102035.50;;;-7.33;96.88
74633;BME280;63139;52.018;8.552;2024-01-10T03:52:07;102040.63;;;-7.31;97.83
74633;BME280;63139;52.018;8.552;2024-01-10T03:54:35;102033.78;;;-7.31;97.95
74633;BME280;63139;52.018;8.552;2024-01-10T03:57:04;102032.91;;;-7.30;98.06
74633;BME280;63139;52.018;8.552;2024-01-10T03:59:32;102034.63;;;-7.29;98.54
74633;BME280;63139;52.018;8.552;2024-01-10T04:02:00;102037.19;;;-7.29;98.60
74633;BME280;63139;52.018;8.552;2024-01-10T04:04:28;102045.75;;;-7.28;98.60
74633;BME280;63139;52.018;8.552;2024-01-10T04:06:56;102046.63;;;-7.28;99.15
74633;BME280;63139;52.018;8.552;2024-01-10T04:09:25;102050.91;;;-7.27;99.18
74633;BME280;63139;52.018;8.552;2024-01-10T04:11:53;102051.78;;;-7.29;98.95
74633;BME280;63139;52.018;8.552;2024-01-10T04:14:21;102050.06;;;-7.29;98.67
74633;BME280;63139;52.018;8.552;2024-01-10T04:16:48;102039.78;;;-7.30;98.08
74633;BME280;63139;52.018;8.552;2024-01-10T04:19:16;102039.78;;;-7.32;97.67
74633;BME280;63139;52.018;8.552;2024-01-10T04:21:44;102050.91;;;-7.30;98.48
74633;BME280;63139;52.018;8.552;2024-01-10T04:24:12;102035.50;;;-7.31;98.49
74633;BME280;63139;52.018;8.552;2024-01-10T04:26:41;102038.06;;;-7.33;99.38
74633;BME280;63139;52.018;8.552;2024-01-10T04:29:09;102042.34;;;-7.30;99.30
74633;BME280;63139;52.018;8.552;2024-01-10T04:31:37;102026.91;;;-7.30;99.04
74633;BME280;63139;52.018;8.552;2024-01-10T04:34:05;102036.34;;;-7.31;98.73
74633;BME280;63139;52.018;8.552;2024-01-10T04:36:33;102038.06;;;-7.33;98.44
74633;BME280;63139;52.018;8.552;2024-01-10T04:39:01;102026.94;;;-7.33;98.31
74633;BME280;63139;52.018;8.552;2024-01-10T04:41:29;102026.13;;;-7.34;98.05
74633;BME280;63139;52.018;8.552;2024-01-10T04:43:58;102020.06;;;-7.33;99.14
74633;BME280;63139;52.018;8.552;2024-01-10T04:46:26;102025.22;;;-7.33;98.69
74633;BME280;63139;52.018;8.552;2024-01-10T04:48:53;102018.34;;;-7.31;98.46
74633;BME280;63139;52.018;8.552;2024-01-10T04:51:21;102010.63;;;-7.31;98.21
74633;BME280;63139;52.018;8.552;2024-01-10T04:53:49;102002.91;;;-7.31;98.04
74633;BME280;63139;52.018;8.552;2024-01-10T04:56:17;102013.19;;;-7.31;98.06
74633;BME280;63139;52.018;8.552;2024-01-10T04:58:45;102008.91;;;-7.30;97.58
74633;BME280;63139;52.018;8.552;2024-01-10T05:01:15;102020.91;;;-7.29;97.98
74633;BME280;63139;52.018;8.552;2024-01-10T05:03:42;102015.75;;;-7.29;97.74
74633;BME280;63139;52.018;8.552;2024-01-10T05:06:10;102012.34;;;-7.30;97.92
74633;BME280;63139;52.018;8.552;2024-01-10T05:08:38;102013.19;;;-7.29;97.98
74633;BME280;63139;52.018;8.552;2024-01-10T05:11:06;102014.91;;;-7.30;97.74
74633;BME280;63139;52.018;8.552;2024-01-10T05:13:34;102008.91;;;-7.32;97.96
74633;BME280;63139;52.018;8.552;2024-01-10T05:16:02;101993.47;;;-7.30;98.01
74633;BME280;63139;52.018;8.552;2024-01-10T05:18:31;101997.75;;;-7.29;97.68
74633;BME280;63139;52.018;8.552;2024-01-10T05:21:00;101995.19;;;-7.28;97.60
74633;BME280;63139;52.018;8.552;2024-01-10T05:23:28;101999.47;;;-7.27;97.47
74633;BME280;63139;52.018;8.552;2024-01-10T05:25:56;102000.25;;;-7.25;97.60
74633;BME280;63139;52.018;8.552;2024-01-10T05:28:24;102001.97;;;-7.24;96.80
74633;BME280;63139;52.018;8.552;2024-01-10T05:30:52;102006.25;;;-7.23;96.44
74633;BME280;63139;52.018;8.552;2024-01-10T05:33:20;102000.25;;;-7.25;96.33
74633;BME280;63139;52.018;8.552;2024-01-10T05:35:49;102001.97;;;-7.25;96.46
74633;BME280;63139;52.018;8.552;2024-01-10T05:38:17;102002.88;;;-7.26;97.02
74633;BME280;63139;52.018;8.552;2024-01-10T05:40:45;102005.47;;;-7.26;96.71
74633;BME280;63139;52.018;8.552;2024-01-10T05:43:13;102007.19;;;-7.28;96.42
74633;BME280;63139;52.018;8.552;2024-01-10T05:45:42;102001.19;;;-7.29;96.30
74633;BME280;63139;52.018;8.552;2024-01-10T05:48:09;101996.91;;;-7.30;96.40
74633;BME280;63139;52.018;8.552;2024-01-10T05:50:37;101991.78;;;-7.31;96.46
74633;BME280;63139;52.018;8.552;2024-01-10T05:53:07;101996.06;;;-7.30;97.28
74633;BME280;63139;52.018;8.552;2024-01-10T05:55:36;101992.63;;;-7.29;97.34
74633;BME280;63139;52.018;8.552;2024-01-10T05:58:05;101992.63;;;-7.29;97.10
74633;BME280;63139;52.018;8.552;2024-01-10T06:00:35;101989.19;;;-7.30;97.21
74633;BME280;63139;52.018;8.552;2024-01-10T06:03:03;101985.75;;;-7.30;97.01
74633;BME280;63139;52.018;8.552;2024-01-10T06:05:30;101981.50;;;-7.31;97.71
74633;BME280;63139;52.018;8.552;2024-01-10T06:07:58;101983.19;;;-7.30;97.37
74633;BME280;63139;52.018;8.552;2024-01-10T06:10:28;101979.75;;;-7.29;97.65
74633;BME280;63139;52.018;8.552;2024-01-10T06:12:58;101990.84;;;-7.24;97.19
74633;BME280;63139;52.018;8.552;2024-01-10T06:15:25;101991.75;;;-7.27;96.48
74633;BME280;63139;52.018;8.552;2024-01-10T06:17:53;101984.88;;;-7.26;97.19
74633;BME280;63139;52.018;8.552;2024-01-10T06:20:22;101990.03;;;-7.26;97.02
74633;BME280;63139;52.018;8.552;2024-01-10T06:22:49;101989.19;;;-7.28;96.81
74633;BME280;63139;52.018;8.552;2024-01-10T06:25:17;101987.47;;;-7.28;97.21
74633;BME280;63139;52.018;8.552;2024-01-10T06:27:46;101993.41;;;-7.26;97.38
74633;BME280;63139;52.018;8.552;2024-01-10T06:30:14;101988.25;;;-7.24;97.12
74633;BME280;63139;52.018;8.552;2024-01-10T06:32:42;101990.03;;;-7.26;97.15
74633;BME280;63139;52.018;8.552;2024-01-10T06:35:10;101987.41;;;-7.25;97.50
74633;BME280;63139;52.018;8.552;2024-01-10T06:37:38;101988.31;;;-7.27;97.47
74633;BME280;63139;52.018;8.552;2024-01-10T06:40:07;101992.56;;;-7.25;97.72
74633;BME280;63139;52.018;8.552;2024-01-10T06:42:35;101989.97;;;-7.25;97.48
74633;BME280;63139;52.018;8.552;2024-01-10T06:45:07;101998.53;;;-7.24;96.99
74633;BME280;63139;52.018;8.552;2024-01-10T06:47:35;102000.31;;;-7.26;96.82
74633;BME280;63139;52.018;8.552;2024-01-10T06:50:05;102002.88;;;-7.26;96.82
74633;BME280;63139;52.018;8.552;2024-01-10T06:52:33;101998.63;;;-7.29;96.77
74633;BME280;63139;52.018;8.552;2024-01-10T06:55:00;102009.75;;;-7.27;97.57
74633;BME280;63139;52.018;8.552;2024-01-10T06:57:30;102008.03;;;-7.28;96.71
74633;BME280;63139;52.018;8.552;2024-01-10T06:59:58;102014.91;;;-7.28;96.61
74633;BME280;63139;52.018;8.552;2024-01-10T07:02:27;102011.47;;;-7.30;96.19
74633;BME280;63139;52.018;8.552;2024-01-10T07:04:55;102018.34;;;-7.31;96.65
74633;BME280;63139;52.018;8.552;2024-01-10T07:07:23;102019.19;;;-7.30;96.99
74633;BME280;63139;52.018;8.552;2024-01-10T07:09:51;102017.50;;;-7.33;97.07
74633;BME280;63139;52.018;8.552;2024-01-10T07:12:18;102013.25;;;-7.34;97.19
74633;BME280;63139;52.018;8.552;2024-01-10T07:14:46;102016.69;;;-7.35;96.88
74633;BME280;63139;52.018;8.552;2024-01-10T07:17:14;102021.00;;;-7.37;96.80
74633;BME280;63139;52.018;8.552;2024-01-10T07:19:43;102015.84;;;-7.35;96.98
74633;BME280;63139;52.018;8.552;2024-01-10T07:22:12;102019.25;;;-7.35;97.41
74633;BME280;63139;52.018;8.552;2024-01-10T07:24:40;102024.41;;;-7.35;97.25
74633;BME280;63139;52.018;8.552;2024-01-10T07:27:08;102020.97;;;-7.34;97.62
74633;BME280;63139;52.018;8.552;2024-01-10T07:29:36;102015.81;;;-7.34;98.10
74633;BME280;63139;52.018;8.552;2024-01-10T07:32:04;102011.53;;;-7.35;98.25
74633;BME280;63139;52.018;8.552;2024-01-10T07:34:32;102022.66;;;-7.33;98.95
74633;BME280;63139;52.018;8.552;2024-01-10T07:37:01;102025.22;;;-7.33;99.31
74633;BME280;63139;52.018;8.552;2024-01-10T07:39:29;102032.06;;;-7.32;99.25
74633;BME280;63139;52.018;8.552;2024-01-10T07:41:57;102035.47;;;-7.30;98.90
74633;BME280;63139;52.018;8.552;2024-01-10T07:44:29;102032.91;;;-7.30;98.12
74633;BME280;63139;52.018;8.552;2024-01-10T07:46:56;102023.47;;;-7.29;97.58
74633;BME280;63139;52.018;8.552;2024-01-10T07:49:24;102025.19;;;-7.30;97.43
74633;BME280;63139;52.018;8.552;2024-01-10T07:51:52;102034.59;;;-7.27;97.06
74633;BME280;63139;52.018;8.552;2024-01-10T07:54:22;102032.84;;;-7.25;97.25
74633;BME280;63139;52.018;8.552;2024-01-10T07:56:49;102040.56;;;-7.24;96.83
74633;BME280;63139;52.018;8.552;2024-01-10T07:59:19;102042.25;;;-7.20;97.10
74633;BME280;63139;52.018;8.552;2024-01-10T08:01:54;102031.03;;;-7.17;97.08
74633;BME280;63139;52.018;8.552;2024-01-10T08:04:23;102027.59;;;-7.15;96.89
74633;BME280;63139;52.018;8.552;2024-01-10T08:06:50;102031.81;;;-7.11;96.75
74633;BME280;63139;52.018;8.552;2024-01-10T08:09:18;102027.50;;;-7.09;96.01
74633;BME280;63139;52.018;8.552;2024-01-10T08:11:48;102030.94;;;-7.08;95.77
74633;BME280;63139;52.018;8.552;2024-01-10T08:14:16;102031.78;;;-7.06;95.36
74633;BME280;63139;52.018;8.552;2024-01-10T08:16:44;102035.16;;;-7.02;95.68
74633;BME280;63139;52.018;8.552;2024-01-10T08:19:14;102024.84;;;-7.01;95.53
74633;BME280;63139;52.018;8.552;2024-01-10T08:21:42;102032.53;;;-6.98;95.03
74633;BME280;63139;52.018;8.552;2024-01-10T08:24:10;102035.06;;;-6.95;95.21
74633;BME280;63139;52.018;8.552;2024-01-10T08:26:38;102031.59;;;-6.91;95.52
74633;BME280;63139;52.018;8.552;2024-01-10T08:29:07;102037.53;;;-6.87;95.27
74633;BME280;63139;52.018;8.552;2024-01-10T08:31:35;102030.63;;;-6.82;95.30
74633;BME280;63139;52.018;8.552;2024-01-10T08:34:02;102025.41;;;-6.76;95.49
74633;BME280;63139;52.018;8.552;2024-01-10T08:36:30;102021.03;;;-6.70;95.08
74633;BME280;63139;52.018;8.552;2024-01-10T08:38:58;102028.66;;;-6.63;94.77
74633;BME280;63139;52.018;8.552;2024-01-10T08:41:27;102026.00;;;-6.57;94.85
74633;BME280;63139;52.018;8.552;2024-01-10T08:43:55;102030.19;;;-6.52;94.39
74633;BME280;63139;52.018;8.552;2024-01-10T08:46:24;102024.97;;;-6.46;94.29
74633;BME280;63139;52.018;8.552;2024-01-10T08:48:52;102025.75;;;-6.41;93.82
74633;BME280;63139;52.018;8.552;2024-01-10T08:51:20;102029.94;;;-6.34;93.10
74633;BME280;63139;52.018;8.552;2024-01-10T08:53:48;102030.72;;;-6.29;92.66
74633;BME280;63139;52.018;8.552;2024-01-10T08:56:15;102022.88;;;-6.21;92.56
74633;BME280;63139;52.018;8.552;2024-01-10T08:58:44;102026.19;;;-6.14;91.31
74633;BME280;63139;52.018;8.552;2024-01-10T09:01:11;102027.00;;;-6.09;90.62
74633;BME280;63139;52.018;8.552;2024-01-10T09:03:41;102022.56;;;-6.01;90.39
74633;BME280;63139;52.018;8.552;2024-01-10T09:06:08;102018.16;;;-5.95;90.06
74633;BME280;63139;52.018;8.552;2024-01-10T09:08:38;102024.06;;;-5.88;89.81
74633;BME280;63139;52.018;8.552;2024-01-10T09:11:07;102016.16;;;-5.79;88.94
74633;BME280;63139;52.018;8.552;2024-01-10T09:13:34;102013.47;;;-5.73;88.90
74633;BME280;63139;52.018;8.552;2024-01-10T09:16:04;102016.72;;;-5.63;87.81
74633;BME280;63139;52.018;8.552;2024-01-10T09:18:32;102017.50;;;-5.58;86.94
74633;BME280;63139;52.018;8.552;2024-01-10T09:21:03;102005.34;;;-5.52;86.47
74633;BME280;63139;52.018;8.552;2024-01-10T09:23:31;102014.63;;;-5.43;86.28
74633;BME280;63139;52.018;8.552;2024-01-10T09:25:59;102012.78;;;-5.36;86.38
74633;BME280;63139;52.018;8.552;2024-01-10T09:28:27;102014.38;;;-5.31;85.66
74633;BME280;63139;52.018;8.552;2024-01-10T09:30:55;102009.06;;;-5.23;84.74
74633;BME280;63139;52.018;8.552;2024-01-10T09:33:23;102007.19;;;-5.15;84.08
74633;BME280;63139;52.018;8.552;2024-01-10T09:35:51;102012.22;;;-5.07;83.76
74633;BME280;63139;52.018;8.552;2024-01-10T09:38:20;102008.66;;;-5.03;83.27
74633;BME280;63139;52.018;8.552;2024-01-10T09:40:49;102008.47;;;-4.94;82.88
74633;BME280;63139;52.018;8.552;2024-01-10T09:43:16;102012.63;;;-4.87;81.79
74633;BME280;63139;52.018;8.552;2024-01-10T09:45:47;102012.50;;;-4.81;81.66
74633;BME280;63139;52.018;8.552;2024-01-10T09:48:16;102006.31;;;-4.74;81.40
74633;BME280;63139;52.018;8.552;2024-01-10T09:50:44;102012.16;;;-4.66;80.56
74633;BME280;63139;52.018;8.552;2024-01-10T09:53:20;102005.09;;;-4.58;80.05
74633;BME280;63139;52.018;8.552;2024-01-10T09:55:51;102004.16;;;-4.54;79.87
74633;BME280;63139;52.018;8.552;2024-01-10T09:58:23;102005.63;;;-4.42;79.02
74633;BME280;63139;52.018;8.552;2024-01-10T10:00:51;102010.63;;;-4.36;78.06
74633;BME280;63139;52.018;8.552;2024-01-10T10:03:19;102000.09;;;-4.27;76.84
74633;BME280;63139;52.018;8.552;2024-01-10T10:05:47;101987.84;;;-4.19;75.74
74633;BME280;63139;52.018;8.552;2024-01-10T10:08:15;101981.66;;;-4.13;74.54
74633;BME280;63139;52.018;8.552;2024-01-10T10:10:51;101984.91;;;-4.05;74.38
74633;BME280;63139;52.018;8.552;2024-01-10T10:13:25;101982.06;;;-3.95;73.76
74633;BME280;63139;52.018;8.552;2024-01-10T10:16:00;101986.16;;;-3.86;73.02
74633;BME280;63139;52.018;8.552;2024-01-10T10:18:28;101980.81;;;-3.80;72.06
74633;BME280;63139;52.018;8.552;2024-01-10T10:21:09;101993.41;;;-3.66;72.65
74633;BME280;63139;52.018;8.552;2024-01-10T10:23:39;101983.78;;;-3.63;71.92
74633;BME280;63139;52.018;8.552;2024-01-10T10:26:13;101983.66;;;-3.57;71.00
74633;BME280;63139;52.018;8.552;2024-01-10T10:28:46;101975.69;;;-3.49;70.80
74633;BME280;63139;52.018;8.552;2024-01-10T10:31:15;101977.31;;;-3.46;69.27
74633;BME280;63139;52.018;8.552;2024-01-10T10:33:43;101972.78;;;-3.38;70.17
74633;BME280;63139;52.018;8.552;2024-01-10T10:36:13;101973.59;;;-3.36;69.85
74633;BME280;63139;52.018;8.552;2024-01-10T10:38:41;101969.06;;;-3.28;69.46
74633;BME280;63139;52.018;8.552;2024-01-10T10:41:09;101962.81;;;-3.21;69.97
74633;BME280;63139;52.018;8.552;2024-01-10T10:43:39;101965.22;;;-3.15;69.30
74633;BME280;63139;52.018;8.552;2024-01-10T10:46:11;101958.16;;;-3.10;68.47
74633;BME280;63139;52.018;8.552;2024-01-10T10:48:39;101960.59;;;-3.04;69.10
74633;BME280;63139;52.018;8.552;2024-01-10T10:51:09;101964.81;;;-3.01;68.42
74633;BME280;63139;52.018;8.552;2024-01-10T10:53:38;101966.53;;;-3.00;68.18
74633;BME280;63139;52.018;8.552;2024-01-10T10:56:07;101968.06;;;-2.95;67.75
74633;BME280;63139;52.018;8.552;2024-01-10T10:58:45;101957.59;;;-2.90;67.81
74633;BME280;63139;52.018;8.552;2024-01-10T11:01:14;101964.28;;;-2.83;68.57
74633;BME280;63139;52.018;8.552;2024-01-10T11:03:42;101971.91;;;-2.79;67.37
74633;BME280;63139;52.018;8.552;2024-01-10T11:06:11;101964.78;;;-2.72;67.24
74633;BME280;63139;52.018;8.552;2024-01-10T11:08:43;101962.16;;;-2.70;67.62
74633;BME280;63139;52.018;8.552;2024-01-10T11:11:19;101965.44;;;-2.65;67.18
74633;BME280;63139;52.018;8.552;2024-01-10T11:14:03;101960.91;;;-2.59;66.74
74633;BME280;63139;52.018;8.552;2024-01-10T11:16:59;101961.00;;;-2.60;65.84
74633;BME280;63139;52.018;8.552;2024-01-10T11:20:09;101961.72;;;-2.57;65.63
74633;BME280;63139;52.018;8.552;2024-01-10T11:22:50;101955.63;;;-2.54;65.41
74633;BME280;63139;52.018;8.552;2024-01-10T11:25:21;101968.38;;;-2.48;65.36
74633;BME280;63139;52.018;8.552;2024-01-10T11:27:52;101969.19;;;-2.46;64.92
74633;BME280;63139;52.018;8.552;2024-01-10T11:30:33;101968.22;;;-2.44;64.57
74633;BME280;63139;52.018;8.552;2024-01-10T11:33:08;101965.47;;;-2.38;65.07
74633;BME280;63139;52.018;8.552;2024-01-10T11:36:09;101960.97;;;-2.32;64.54
74633;BME280;63139;52.018;8.552;2024-01-10T11:38:42;101965.09;;;-2.27;65.42
74633;BME280;63139;52.018;8.552;2024-01-10T11:41:11;101964.16;;;-2.24;65.15
74633;BME280;63139;52.018;8.552;2024-01-10T11:43:39;101954.53;;;-2.21;64.81
74633;BME280;63139;52.018;8.552;2024-01-10T11:46:08;101961.28;;;-2.15;64.81
74633;BME280;63139;52.018;8.552;2024-01-10T11:48:38;101949.94;;;-2.13;64.26
74633;BME280;63139;52.018;8.552;2024-01-10T11:51:07;101947.19;;;-2.08;64.95
74633;BME280;63139;52.018;8.552;2024-01-10T11:53:42;101949.69;;;-2.05;64.67
74633;BME280;63139;52.018;8.552;2024-01-10T11:56:14;101951.28;;;-2.01;64.46
74633;BME280;63139;52.018;8.552;2024-01-10T11:59:00;101943.50;;;-2.01;64.26
74633;BME280;63139;52.018;8.552;2024-01-10T12:01:30;101945.94;;;-1.97;64.52
74633;BME280;63139;52.018;8.552;2024-01-10T12:03:58;101954.31;;;-1.88;64.43
74633;BME280;63139;52.018;8.552;2024-01-10T12:06:44;101946.34;;;-1.84;64.49
74633;BME280;63139;52.018;8.552;2024-01-10T12:09:13;101939.38;;;-1.82;64.62
74633;BME280;63139;52.018;8.552;2024-01-10T12:11:41;101937.44;;;-1.77;64.89
74633;BME280;63139;52.018;8.552;2024-01-10T12:14:09;101935.66;;;-1.75;64.31
74633;BME280;63139;52.018;8.552;2024-01-10T12:16:39;101942.53;;;-1.74;64.30
74633;BME280;63139;52.018;8.552;2024-01-10T12:19:09;101936.28;;;-1.68;64.56
74633;BME280;63139;52.018;8.552;2024-01-10T12:21:37;101931.91;;;-1.66;64.68
74633;BME280;63139;52.018;8.552;2024-01-10T12:24:05;101935.28;;;-1.64;64.65
74633;BME280;63139;52.018;8.552;2024-01-10T12:26:33;101936.13;;;-1.64;64.41
74633;BME280;63139;52.018;8.552;2024-01-10T12:29:02;101929.06;;;-1.60;63.99
74633;BME280;63139;52.018;8.552;2024-01-10T12:31:31;101928.81;;;-1.52;64.14
74633;BME280;63139;52.018;8.552;2024-01-10T12:34:00;101927.81;;;-1.48;64.42
74633;BME280;63139;52.018;8.552;2024-01-10T12:36:31;101917.41;;;-1.48;64.30
74633;BME280;63139;52.018;8.552;2024-01-10T12:38:59;101917.19;;;-1.42;64.43
74633;BME280;63139;52.018;8.552;2024-01-10T12:41:27;101914.53;;;-1.41;64.14
74633;BME280;63139;52.018;8.552;2024-01-10T12:43:55;101918.72;;;-1.37;64.31
74633;BME280;63139;52.018;8.552;2024-01-10T12:46:22;101914.31;;;-1.35;64.14
74633;BME280;63139;52.018;8.552;2024-01-10T12:48:59;101909.84;;;-1.31;64.14
74633;BME280;63139;52.018;8.552;2024-01-10T12:51:29;101914.09;;;-1.29;63.79
74633;BME280;63139;52.018;8.552;2024-01-10T12:53:58;101920.06;;;-1.27;63.94
74633;BME280;63139;52.018;8.552;2024-01-10T12:56:27;101915.72;;;-1.26;63.84
74633;BME280;63139;52.018;8.552;2024-01-10T12:58:55;101920.78;;;-1.23;64.34
74633;BME280;63139;52.018;8.552;2024-01-10T13:01:24;101918.19;;;-1.23;64.24